Time;durP1;ratioP1;P1;durP2;ratioP2;P2;SDS_P1;SDS_P2;PMS_P1;PMS_P2;Temp;Humidity;BMP_temperature;BMP_pressure;BME280_temperature;BME280_humidity;BME280_pressure;Samples;Min_cycle;Max_cycle;Signal;HPM_P1;HPM_P2
2022/06/23 00:00:59;;;;;;;0.40;0.20;;;;;;;22.07;95.62;99785.84;5005831;28;20453;-54
2022/06/23 00:03:31;;;;;;;0.40;0.20;;;;;;;22.27;94.22;99789.56;5006540;28;20821;-55
2022/06/23 00:06:03;;;;;;;0.40;0.20;;;;;;;22.20;95.05;99789.22;5005799;28;20808;-54
2022/06/23 00:08:29;;;;;;;0.40;0.20;;;;;;;22.18;95.26;99792.03;5009590;28;20472;-54
2022/06/23 00:10:59;;;;;;;0.40;0.20;;;;;;;22.31;94.76;99788.28;5011960;28;20449;-54
2022/06/23 00:13:37;;;;;;;0.40;0.20;;;;;;;22.23;94.68;99788.97;5008390;28;20837;-54
2022/06/23 00:16:06;;;;;;;0.40;0.23;;;;;;;22.12;96.13;99780.88;5005337;28;20494;-54
2022/06/23 00:18:35;;;;;;;0.40;0.20;;;;;;;22.12;95.53;99776.34;5006767;28;20496;-55
2022/06/23 00:21:16;;;;;;;0.40;0.20;;;;;;;22.17;95.85;99781.34;5030715;28;20499;-55
2022/06/23 00:23:46;;;;;;;0.50;0.30;;;;;;;22.27;95.84;99782.28;5005271;28;20445;-54
2022/06/23 00:26:18;;;;;;;0.40;0.20;;;;;;;22.26;95.58;99787.84;5018325;28;20444;-54
2022/06/23 00:28:52;;;;;;;0.40;0.20;;;;;;;22.32;95.71;99782.75;5016311;28;20476;-54
2022/06/23 00:31:28;;;;;;;0.40;0.20;;;;;;;22.31;95.80;99783.75;5008450;28;20938;-54
2022/06/23 00:33:56;;;;;;;0.40;0.20;;;;;;;22.60;94.56;99789.34;5005350;28;20545;-54
2022/06/23 00:36:49;;;;;;;0.40;0.20;;;;;;;22.40;95.26;99806.47;5007046;28;20489;-54
2022/06/23 00:39:19;;;;;;;0.40;0.20;;;;;;;22.37;95.21;99802.19;5007025;28;20445;-54
2022/06/23 00:41:47;;;;;;;0.40;0.20;;;;;;;22.46;94.93;99795.09;5005347;28;20449;-54
2022/06/23 00:44:40;;;;;;;0.40;0.20;;;;;;;22.78;92.87;99795.06;5009441;28;20511;-54
2022/06/23 00:47:17;;;;;;;0.40;0.20;;;;;;;22.50;93.96;99790.31;5010247;28;20573;-54
2022/06/23 00:50:12;;;;;;;0.40;0.20;;;;;;;22.20;95.67;99791.91;5008470;28;20855;-54
2022/06/23 00:52:45;;;;;;;0.40;0.20;;;;;;;22.14;95.77;99795.16;4998125;28;20452;-54
2022/06/23 00:55:34;;;;;;;0.40;0.20;;;;;;;21.88;96.87;99795.47;5006292;28;20491;-54
2022/06/23 00:58:07;;;;;;;0.57;0.57;;;;;;;21.70;98.16;99797.00;4996476;28;20481;-54
2022/06/23 01:00:39;;;;;;;0.40;0.20;;;;;;;21.85;96.76;99805.69;5015110;28;20896;-54
2022/06/23 01:03:27;;;;;;;0.50;0.40;;;;;;;21.49;98.02;99805.00;5001814;28;20511;-54
2022/06/23 01:06:23;;;;;;;1.03;1.03;;;;;;;21.24;99.14;99794.44;5006702;28;20982;-55
2022/06/23 01:08:57;;;;;;;0.40;0.20;;;;;;;21.09;100.00;99780.31;5008196;28;20476;-54
2022/06/23 01:11:50;;;;;;;0.40;0.20;;;;;;;20.93;100.00;99775.28;5001770;28;20518;-54
2022/06/23 01:14:29;;;;;;;0.40;0.20;;;;;;;21.03;100.00;99774.56;5001755;28;21552;-54
2022/06/23 01:17:07;;;;;;;0.40;0.20;;;;;;;20.98;100.00;99775.78;5003479;28;20551;-54
2022/06/23 01:19:49;;;;;;;0.40;0.20;;;;;;;20.99;100.00;99785.63;5021307;28;20447;-54
2022/06/23 01:22:55;;;;;;;0.40;0.20;;;;;;;20.74;100.00;99795.78;5016596;28;20494;-54
2022/06/23 01:26:06;;;;;;;0.40;0.20;;;;;;;20.84;100.00;99799.47;5008111;28;20499;-54
2022/06/23 01:28:39;;;;;;;0.40;0.20;;;;;;;20.73;100.00;99791.34;5008074;28;20476;-54
2022/06/23 01:31:19;;;;;;;0.40;0.20;;;;;;;20.60;100.00;99781.50;5001398;28;20452;-53
2022/06/23 01:33:56;;;;;;;0.40;0.20;;;;;;;20.13;100.00;99777.03;5001393;28;20444;-54
2022/06/23 01:36:38;;;;;;;0.40;0.20;;;;;;;20.00;100.00;99769.00;5012834;28;20492;-54
2022/06/23 01:39:19;;;;;;;0.40;0.20;;;;;;;20.14;100.00;99773.34;5001470;28;20469;-54
2022/06/23 01:41:59;;;;;;;0.40;0.20;;;;;;;20.30;100.00;99773.94;5000863;28;20446;-54
2022/06/23 01:44:46;;;;;;;0.40;0.20;;;;;;;20.46;100.00;99780.88;5003671;28;20503;-54
2022/06/23 01:47:23;;;;;;;0.40;0.20;;;;;;;20.36;100.00;99776.13;5001069;28;21000;-54
2022/06/23 01:49:57;;;;;;;0.40;0.20;;;;;;;20.36;100.00;99786.06;5001181;28;20482;-54
2022/06/23 01:52:24;;;;;;;0.40;0.20;;;;;;;20.38;100.00;99773.31;5004966;28;20450;-54
2022/06/23 01:54:57;;;;;;;0.40;0.20;;;;;;;20.05;100.00;99782.19;5007539;28;20532;-54
2022/06/23 01:57:48;;;;;;;0.40;0.20;;;;;;;19.90;100.00;99789.59;5004882;28;20488;-54
2022/06/23 02:00:25;;;;;;;0.40;0.20;;;;;;;19.82;100.00;99794.69;5000742;28;20452;-54
2022/06/23 02:03:13;;;;;;;0.40;0.20;;;;;;;19.87;100.00;99805.13;5000815;28;20964;-55
2022/06/23 02:05:49;;;;;;;0.40;0.20;;;;;;;19.70;100.00;99799.16;5005858;28;20444;-54
2022/06/23 02:08:37;;;;;;;0.40;0.20;;;;;;;19.55;100.00;99804.81;5000953;28;20992;-54
2022/06/23 02:11:12;;;;;;;0.40;0.20;;;;;;;19.59;100.00;99811.69;5000440;28;20445;-54
2022/06/23 02:13:41;;;;;;;0.40;0.20;;;;;;;19.60;100.00;99803.53;5002875;28;20453;-54
2022/06/23 02:16:25;;;;;;;0.40;0.20;;;;;;;19.81;100.00;99810.00;5007186;28;20540;-54
2022/06/23 02:19:00;;;;;;;0.40;0.20;;;;;;;19.59;100.00;99817.97;5008330;28;20475;-54
2022/06/23 02:21:35;;;;;;;0.40;0.20;;;;;;;19.36;100.00;99816.06;5024313;28;20448;-54
2022/06/23 02:24:18;;;;;;;0.40;0.20;;;;;;;19.65;100.00;99822.06;5000504;28;20455;-55
2022/06/23 02:26:58;;;;;;;0.40;0.20;;;;;;;19.48;100.00;99828.66;5008666;28;20456;-54
2022/06/23 02:29:33;;;;;;;0.40;0.20;;;;;;;19.26;100.00;99837.41;5002195;28;20444;-54
2022/06/23 02:32:02;;;;;;;0.40;0.20;;;;;;;18.88;100.00;99834.75;5000129;28;20503;-54
2022/06/23 02:34:47;;;;;;;0.40;0.20;;;;;;;18.74;100.00;99833.00;5004233;28;20504;-54
2022/06/23 02:37:51;;;;;;;0.40;0.20;;;;;;;18.89;100.00;99837.31;5011878;28;20496;-53
2022/06/23 02:40:51;;;;;;;0.40;0.20;;;;;;;19.16;100.00;99829.13;5000058;28;20445;-54
2022/06/23 02:43:41;;;;;;;0.40;0.20;;;;;;;19.01;100.00;99824.81;4999866;28;20507;-54
2022/06/23 02:46:25;;;;;;;0.40;0.20;;;;;;;19.11;100.00;99820.53;5001968;28;20453;-54
2022/06/23 02:49:14;;;;;;;0.40;0.20;;;;;;;19.17;100.00;99821.91;5000780;28;20506;-54
2022/06/23 02:51:59;;;;;;;0.40;0.30;;;;;;;19.24;100.00;99826.75;4999373;28;21221;-55
2022/06/23 02:54:57;;;;;;;0.40;0.20;;;;;;;19.22;100.00;99822.44;5000127;28;20446;-54
2022/06/23 02:57:46;;;;;;;6.17;2.57;;;;;;;18.99;100.00;99821.38;5003678;28;20492;-54
2022/06/23 03:00:37;;;;;;;0.40;0.20;;;;;;;18.73;100.00;99827.75;5000349;28;20457;-54
2022/06/23 03:03:22;;;;;;;0.40;0.20;;;;;;;19.05;100.00;99836.25;4999473;28;20953;-54
2022/06/23 03:06:22;;;;;;;0.40;0.20;;;;;;;19.03;100.00;99836.34;5005073;28;20451;-54
2022/06/23 03:09:12;;;;;;;0.40;0.20;;;;;;;18.96;100.00;99840.47;4989308;28;20520;-54
2022/06/23 03:11:54;;;;;;;0.40;0.20;;;;;;;18.89;100.00;99853.50;5000607;28;20507;-54
2022/06/23 03:14:29;;;;;;;0.40;0.20;;;;;;;18.70;100.00;99855.75;4999475;28;20974;-54
2022/06/23 03:17:04;;;;;;;0.40;0.20;;;;;;;18.71;100.00;99856.59;5001309;28;20544;-53
2022/06/23 03:19:43;;;;;;;1.90;1.90;;;;;;;18.84;100.00;99855.66;5018381;28;20439;-55
2022/06/23 03:22:30;;;;;;;0.40;0.20;;;;;;;18.68;100.00;99855.00;5016625;28;20858;-54
2022/06/23 03:25:10;;;;;;;0.40;0.20;;;;;;;18.79;100.00;99856.97;5003829;28;20499;-54
2022/06/23 03:27:41;;;;;;;0.40;0.20;;;;;;;18.90;100.00;99851.66;5007154;28;20530;-54
2022/06/23 03:31:07;;;;;;;0.40;0.20;;;;;;;18.91;100.00;99846.19;4999602;28;20511;-55
2022/06/23 03:33:44;;;;;;;0.40;0.20;;;;;;;18.71;100.00;99848.53;4998808;28;20464;-54
2022/06/23 03:36:30;;;;;;;0.40;0.20;;;;;;;18.61;100.00;99842.88;5001376;28;20453;-54
2022/06/23 03:41:59;;;;;;;0.40;0.20;;;;;;;18.88;100.00;99842.81;5005657;28;20465;-54
2022/06/23 03:44:38;;;;;;;0.40;0.20;;;;;;;18.87;100.00;99841.09;5003736;28;20448;-54
2022/06/23 03:47:32;;;;;;;0.40;0.20;;;;;;;18.90;100.00;99846.28;4998900;28;20962;-54
2022/06/23 03:50:04;;;;;;;0.40;0.30;;;;;;;18.94;100.00;99847.81;4978349;28;21031;-54
2022/06/23 03:52:53;;;;;;;0.40;0.20;;;;;;;18.95;100.00;99846.81;5001867;28;20931;-54
2022/06/23 03:55:24;;;;;;;0.40;0.20;;;;;;;18.96;100.00;99845.84;4999645;28;20479;-54
2022/06/23 03:58:43;;;;;;;0.40;0.20;;;;;;;19.02;100.00;99847.25;4998942;28;20555;-53
2022/06/23 04:01:14;;;;;;;0.40;0.20;;;;;;;18.94;100.00;99851.34;4990906;28;20499;-54
2022/06/23 04:03:59;;;;;;;0.40;0.20;;;;;;;19.06;100.00;99867.63;5003754;28;20485;-54
2022/06/23 04:06:41;;;;;;;0.40;0.20;;;;;;;18.87;100.00;99862.66;5010250;28;21023;-53
2022/06/23 04:09:21;;;;;;;3.77;3.50;;;;;;;18.82;100.00;99872.91;4998978;28;20893;-54
2022/06/23 04:11:47;;;;;;;0.40;0.20;;;;;;;18.87;100.00;99876.13;5003547;28;20453;-54
2022/06/23 04:14:39;;;;;;;0.40;0.20;;;;;;;18.98;100.00;99884.31;5005784;28;20803;-53
2022/06/23 04:17:10;;;;;;;0.40;0.20;;;;;;;19.04;100.00;99875.78;5004726;28;20500;-55
2022/06/23 04:19:41;;;;;;;0.40;0.20;;;;;;;19.21;100.00;99875.50;5006698;28;20467;-55
2022/06/23 04:22:14;;;;;;;0.40;0.20;;;;;;;19.33;100.00;99876.47;5015317;28;20495;-54
2022/06/23 04:24:45;;;;;;;0.40;0.20;;;;;;;19.50;100.00;99870.72;5005086;28;20452;-54
2022/06/23 04:27:25;;;;;;;0.40;0.20;;;;;;;19.56;100.00;99879.34;5010701;28;20484;-54
2022/06/23 04:29:55;;;;;;;0.40;0.20;;;;;;;20.03;100.00;99879.44;5004895;28;20445;-54
2022/06/23 04:32:29;;;;;;;0.40;0.20;;;;;;;20.27;100.00;99879.41;5009308;28;20452;-54
2022/06/23 04:35:05;;;;;;;0.40;0.20;;;;;;;20.68;100.00;99883.53;5008777;28;20540;-54
2022/06/23 04:38:04;;;;;;;0.40;0.20;;;;;;;21.10;100.00;99875.78;5015039;28;20554;-54
2022/06/23 04:40:33;;;;;;;0.50;0.40;;;;;;;21.25;100.00;99878.19;5002275;28;20925;-54
2022/06/23 04:43:22;;;;;;;0.40;0.20;;;;;;;21.71;98.28;99876.31;5015897;28;20838;-54
2022/06/23 04:45:57;;;;;;;0.40;0.20;;;;;;;21.94;96.76;99879.84;5004693;28;20449;-54
2022/06/23 04:48:24;;;;;;;0.40;0.20;;;;;;;22.13;95.44;99886.34;5002056;28;20460;-54
2022/06/23 04:50:58;;;;;;;0.40;0.20;;;;;;;22.28;94.21;99894.19;5005062;28;20958;-54
2022/06/23 04:53:39;;;;;;;0.40;0.20;;;;;;;22.53;94.20;99893.84;5008842;28;20945;-54
2022/06/23 04:56:41;;;;;;;0.40;0.20;;;;;;;22.80;92.28;99889.78;5008740;28;20472;-55
2022/06/23 04:59:33;;;;;;;0.50;0.40;;;;;;;22.86;92.93;99894.69;4991056;28;20448;-54
2022/06/23 05:02:11;;;;;;;0.40;0.20;;;;;;;23.14;91.81;99890.44;5003920;28;20441;-54
2022/06/23 05:04:42;;;;;;;0.40;0.20;;;;;;;23.26;91.16;99890.25;5001874;28;20448;-54
2022/06/23 05:07:24;;;;;;;0.40;0.20;;;;;;;23.19;91.60;99891.78;5014549;28;20956;-54
2022/06/23 05:09:55;;;;;;;0.43;0.20;;;;;;;23.20;92.29;99892.66;5001912;28;20444;-54
2022/06/23 05:12:28;;;;;;;0.40;0.20;;;;;;;23.28;92.20;99900.94;5001910;28;20445;-55
2022/06/23 05:15:19;;;;;;;0.40;0.20;;;;;;;23.39;91.57;99906.28;5006606;28;20449;-54
2022/06/23 05:18:11;;;;;;;2.20;2.10;;;;;;;23.52;91.76;99909.66;5008195;28;20493;-54
2022/06/23 05:20:52;;;;;;;0.40;0.20;;;;;;;24.02;88.56;99914.31;5003449;28;20457;-54
2022/06/23 05:23:29;;;;;;;0.40;0.20;;;;;;;24.12;89.62;99913.34;5005346;28;20507;-54
2022/06/23 05:26:05;;;;;;;0.40;0.20;;;;;;;24.40;88.70;99914.41;5000986;28;20949;-55
2022/06/23 05:28:36;;;;;;;0.40;0.20;;;;;;;24.31;89.07;99914.41;5013678;28;20479;-55
2022/06/23 05:31:13;;;;;;;0.67;0.67;;;;;;;24.72;87.29;99910.56;5002662;28;21012;-55
2022/06/23 05:33:46;;;;;;;0.40;0.30;;;;;;;24.84;86.78;99920.28;5000968;28;20445;-55
2022/06/23 05:36:19;;;;;;;0.40;0.20;;;;;;;25.23;86.14;99909.38;5012416;28;20506;-56
2022/06/23 05:38:58;;;;;;;0.40;0.30;;;;;;;25.29;86.02;99908.78;5009684;28;20604;-55
2022/06/23 05:41:31;;;;;;;0.43;0.20;;;;;;;25.81;83.81;99903.75;5007635;28;20449;-55
2022/06/23 05:43:58;;;;;;;0.43;0.30;;;;;;;26.38;82.21;99913.47;5002009;28;20502;-55
2022/06/23 05:46:28;;;;;;;0.40;0.20;;;;;;;25.58;84.75;99909.53;5001199;28;20484;-55
2022/06/23 05:49:04;;;;;;;0.60;0.60;;;;;;;25.42;87.39;99906.59;5006352;28;20469;-55
2022/06/23 05:51:40;;;;;;;0.40;0.20;;;;;;;25.67;86.33;99897.75;5007877;28;20480;-55
2022/06/23 05:54:23;;;;;;;0.63;0.63;;;;;;;25.66;88.07;99901.50;5004586;28;20945;-55
2022/06/23 05:57:26;;;;;;;0.50;0.50;;;;;;;25.48;89.42;99892.38;5000959;28;20506;-55
2022/06/23 06:00:14;;;;;;;0.40;0.20;;;;;;;25.03;90.89;99905.81;5000697;28;20959;-55
2022/06/23 06:03:15;;;;;;;0.40;0.30;;;;;;;24.37;94.12;99892.06;5000748;28;20503;-54
2022/06/23 06:05:49;;;;;;;0.40;0.20;;;;;;;24.24;95.50;99898.59;5006716;28;20459;-55
2022/06/23 06:08:32;;;;;;;0.43;0.23;;;;;;;24.01;95.97;99901.72;5013861;28;20501;-55
2022/06/23 06:11:02;;;;;;;0.40;0.30;;;;;;;23.52;99.69;99906.06;5000555;28;20835;-54
2022/06/23 06:13:35;;;;;;;0.47;0.30;;;;;;;23.49;100.00;99906.34;5004462;28;20500;-54
2022/06/23 06:16:04;;;;;;;0.50;0.20;;;;;;;23.64;100.00;99902.31;5007234;28;20450;-54
2022/06/23 06:18:36;;;;;;;0.50;0.20;;;;;;;23.53;100.00;99910.50;5004506;28;20496;-54
2022/06/23 06:21:06;;;;;;;0.40;0.20;;;;;;;23.55;100.00;99900.38;5027116;28;20445;-54
2022/06/23 07:05:28;;;;;;;0.40;0.30;;;;;;;23.80;99.74;99923.50;5000308;28;20423;-55
2022/06/23 07:08:06;;;;;;;0.40;0.20;;;;;;;24.47;96.85;99920.97;5006300;28;20466;-55
2022/06/23 07:10:47;;;;;;;0.50;0.40;;;;;;;24.13;98.41;99919.63;5005289;28;20498;-55
2022/06/23 07:13:32;;;;;;;0.40;0.20;;;;;;;23.91;100.00;99923.41;5000573;28;20448;-55
2022/06/23 07:16:06;;;;;;;0.40;0.20;;;;;;;23.69;100.00;99920.88;4999700;28;20451;-54
2022/06/23 07:18:53;;;;;;;0.40;0.20;;;;;;;23.36;100.00;99925.56;5001406;28;20489;-54
2022/06/23 07:21:28;;;;;;;0.40;0.20;;;;;;;23.68;100.00;99936.31;5000811;28;20447;-56
2022/06/23 07:23:54;;;;;;;0.43;0.30;;;;;;;24.06;99.71;99932.03;4999725;28;20455;-54
2022/06/23 07:26:36;;;;;;;0.40;0.20;;;;;;;23.97;99.77;99935.56;5008049;28;20467;-55
2022/06/23 07:29:13;;;;;;;0.40;0.20;;;;;;;24.00;100.00;99932.59;5008332;28;20901;-54
2022/06/23 07:31:59;;;;;;;0.50;0.40;;;;;;;24.11;99.62;99927.88;5005356;28;20448;-54
2022/06/23 07:34:28;;;;;;;0.40;0.20;;;;;;;24.18;98.68;99922.78;5001376;28;20487;-55
2022/06/23 07:37:03;;;;;;;0.40;0.20;;;;;;;24.23;98.04;99929.50;5011129;28;20449;-55
2022/06/23 07:39:35;;;;;;;1.73;1.27;;;;;;;24.29;97.81;99925.38;5002924;28;20855;-55
2022/06/23 07:42:11;;;;;;;1.27;1.27;;;;;;;23.98;98.38;99921.84;5006097;28;20451;-54
2022/06/23 07:44:53;;;;;;;0.47;0.20;;;;;;;23.75;99.91;99918.50;5005027;28;20455;-54
2022/06/23 07:47:21;;;;;;;0.40;0.30;;;;;;;24.16;97.63;99911.19;5000648;28;20463;-54
2022/06/23 07:49:48;;;;;;;0.40;0.20;;;;;;;24.28;97.48;99912.78;4999521;28;20519;-55
2022/06/23 07:52:18;;;;;;;0.47;0.33;;;;;;;24.56;96.53;99913.84;5004100;28;20468;-54
2022/06/23 07:54:49;;;;;;;0.40;0.20;;;;;;;24.79;94.57;99907.09;5005994;28;20479;-55
2022/06/23 07:57:15;;;;;;;0.40;0.20;;;;;;;24.58;95.33;99903.69;5004223;28;20465;-54
2022/06/23 07:59:52;;;;;;;0.50;0.30;;;;;;;24.85;95.50;99902.97;5002959;28;20849;-54
2022/06/23 08:02:26;;;;;;;0.40;0.20;;;;;;;25.10;95.22;99902.38;5005578;28;21062;-55
2022/06/23 08:05:00;;;;;;;0.50;0.30;;;;;;;25.36;93.53;99901.75;5009880;28;20480;-54
2022/06/23 08:07:27;;;;;;;1.03;1.03;;;;;;;24.96;93.92;99899.25;5015082;28;21039;-54
2022/06/23 08:09:58;;;;;;;0.40;0.30;;;;;;;25.51;92.69;99903.00;5002862;28;20452;-55
2022/06/23 08:12:53;;;;;;;0.50;0.30;;;;;;;25.39;91.25;99905.03;5002795;28;20517;-55
2022/06/23 08:18:28;;;;;;;0.47;0.30;;;;;;;25.70;89.75;99896.63;5009481;28;20507;-54
2022/06/23 08:21:06;;;;;;;0.40;0.20;;;;;;;25.42;90.48;99900.28;5028823;28;20861;-54
2022/06/23 08:23:38;;;;;;;0.40;0.30;;;;;;;26.01;88.83;99902.63;5003607;28;20445;-55
2022/06/23 08:26:07;;;;;;;0.40;0.20;;;;;;;26.09;88.80;99889.13;5002615;28;20451;-55
2022/06/23 08:28:34;;;;;;;0.40;0.20;;;;;;;25.93;88.59;99897.97;5015951;28;20487;-55
2022/06/23 08:31:03;;;;;;;0.40;0.30;;;;;;;26.10;87.44;99892.69;5003089;28;20452;-55
2022/06/23 08:33:32;;;;;;;0.40;0.30;;;;;;;26.26;87.39;99899.19;5002391;28;20428;-55
2022/06/23 08:36:07;;;;;;;0.40;0.23;;;;;;;26.33;86.00;99882.22;5014528;28;20866;-55
2022/06/23 08:39:21;;;;;;;0.50;0.50;;;;;;;26.78;84.27;99891.19;5013486;28;20470;-55
2022/06/23 08:42:13;;;;;;;0.50;0.40;;;;;;;26.58;84.84;99884.19;4967477;28;21133;-55
2022/06/23 08:45:03;;;;;;;0.40;0.27;;;;;;;26.96;82.64;99884.84;5008571;28;20535;-55
2022/06/23 08:48:01;;;;;;;0.90;0.90;;;;;;;27.29;81.02;99875.06;5004862;28;20443;-55
2022/06/23 08:50:34;;;;;;;0.40;0.20;;;;;;;26.64;84.34;99874.53;5002912;28;20459;-55
2022/06/23 08:53:22;;;;;;;0.40;0.30;;;;;;;26.47;83.86;99870.81;5002038;28;20435;-55
2022/06/23 08:55:58;;;;;;;0.40;0.30;;;;;;;26.97;80.91;99872.91;5004078;28;20424;-55
2022/06/23 08:58:36;;;;;;;1.37;1.37;;;;;;;26.99;81.56;99877.19;5007376;28;20558;-54
2022/06/23 09:01:09;;;;;;;0.50;0.30;;;;;;;27.20;82.24;99865.09;5008737;28;20429;-55
2022/06/23 09:03:55;;;;;;;0.40;0.27;;;;;;;27.18;82.10;99875.31;5004040;28;20416;-55
2022/06/23 09:07:05;;;;;;;0.47;0.30;;;;;;;27.29;80.18;99870.47;5006824;28;20423;-55
2022/06/23 09:09:35;;;;;;;0.40;0.30;;;;;;;27.76;78.50;99866.44;5001014;28;20426;-55
2022/06/23 09:12:16;;;;;;;0.47;0.30;;;;;;;27.65;78.33;99860.25;5004146;28;20450;-55
2022/06/23 09:14:54;;;;;;;0.50;0.30;;;;;;;27.69;78.67;99858.91;5001484;28;21049;-55
2022/06/23 09:17:37;;;;;;;0.57;0.57;;;;;;;27.44;77.99;99855.19;5001657;28;20444;-55
2022/06/23 09:20:23;;;;;;;0.57;0.57;;;;;;;27.80;78.09;99854.16;5014650;28;20419;-55
2022/06/23 09:22:55;;;;;;;0.40;0.20;;;;;;;27.45;78.27;99859.63;5001639;28;20452;-55
2022/06/23 09:25:31;;;;;;;0.50;0.30;;;;;;;27.66;78.62;99842.84;5001348;28;20432;-55
2022/06/23 09:28:06;;;;;;;0.40;0.20;;;;;;;27.92;76.33;99847.38;5014400;28;20492;-55
2022/06/23 09:30:51;;;;;;;0.40;0.30;;;;;;;28.08;75.70;99841.94;5001263;28;20425;-55
2022/06/23 09:33:21;;;;;;;0.40;0.30;;;;;;;28.44;73.64;99845.28;5002395;28;20450;-55
2022/06/23 09:36:26;;;;;;;0.40;0.30;;;;;;;28.52;73.13;99836.25;5001576;28;20427;-55
2022/06/23 09:39:05;;;;;;;0.40;0.30;;;;;;;28.75;72.42;99839.13;5008550;28;20471;-55
2022/06/23 09:41:49;;;;;;;0.40;0.30;;;;;;;29.00;71.62;99842.75;5008135;28;20423;-54
2022/06/23 09:44:34;;;;;;;1.40;1.40;;;;;;;28.48;72.95;99843.91;5003374;28;20430;-55
2022/06/23 09:47:25;;;;;;;0.50;0.50;;;;;;;28.77;72.08;99837.94;5001100;28;20452;-54
2022/06/23 09:50:19;;;;;;;0.40;0.30;;;;;;;28.58;72.49;99836.41;5000594;28;20962;-55
2022/06/23 09:53:04;;;;;;;0.50;0.30;;;;;;;28.83;71.98;99833.66;5001567;28;20427;-55
2022/06/23 09:56:01;;;;;;;0.40;0.30;;;;;;;28.66;71.21;99832.84;5003461;28;20451;-55
2022/06/23 09:58:47;;;;;;;0.40;0.30;;;;;;;28.49;71.68;99844.78;5000592;28;20509;-55
2022/06/23 10:01:26;;;;;;;0.40;0.30;;;;;;;28.57;71.88;99833.84;5000000;28;20446;-55
2022/06/23 10:04:02;;;;;;;0.43;0.30;;;;;;;29.03;70.55;99828.72;5002550;28;20439;-55
2022/06/23 10:06:28;;;;;;;0.40;0.30;;;;;;;27.89;71.77;99834.91;5013125;28;20950;-55
2022/06/23 10:09:30;;;;;;;0.50;0.30;;;;;;;28.74;70.94;99831.97;5001092;28;21076;-55
2022/06/23 10:12:11;;;;;;;0.40;0.30;;;;;;;28.58;69.13;99817.25;4999219;28;20432;-55
2022/06/23 10:15:18;;;;;;;0.50;0.30;;;;;;;28.35;70.92;99823.56;5000900;28;20419;-55
2022/06/23 10:18:00;;;;;;;0.50;0.30;;;;;;;28.14;72.06;99824.91;5000107;28;21030;-55
2022/06/23 10:20:49;;;;;;;0.40;0.30;;;;;;;28.69;69.72;99821.53;5025971;28;20415;-54
2022/06/23 10:23:51;;;;;;;0.40;0.30;;;;;;;28.89;68.14;99824.78;5003419;28;20445;-55
2022/06/23 10:26:33;;;;;;;0.70;0.70;;;;;;;29.09;66.14;99826.16;5002055;28;20430;-54
2022/06/23 10:29:09;;;;;;;0.50;0.40;;;;;;;28.69;66.97;99816.06;5010078;28;21002;-54
2022/06/23 10:31:53;;;;;;;0.50;0.30;;;;;;;29.48;63.81;99817.16;5006946;28;20449;-54
2022/06/23 10:34:26;;;;;;;0.40;0.30;;;;;;;29.57;63.95;99809.75;4993964;28;20446;-54
2022/06/23 10:36:58;;;;;;;0.40;0.30;;;;;;;29.54;64.07;99816.44;5004365;28;20448;-54
2022/06/23 10:39:40;;;;;;;0.40;0.30;;;;;;;29.40;63.57;99807.03;5003608;28;20459;-54
2022/06/23 10:42:25;;;;;;;0.40;0.30;;;;;;;30.02;62.87;99806.28;4995158;28;20421;-54
2022/06/23 10:45:16;;;;;;;0.40;0.30;;;;;;;29.81;61.87;99806.03;5008274;28;20426;-55
2022/06/23 10:48:21;;;;;;;0.50;0.40;;;;;;;30.11;60.92;99805.19;5002128;28;20466;-54
2022/06/23 10:51:06;;;;;;;0.40;0.30;;;;;;;29.60;60.74;99793.78;4978731;28;20428;-55
2022/06/23 10:53:51;;;;;;;0.50;0.27;;;;;;;30.06;60.66;99794.78;5006597;28;20843;-55
2022/06/23 10:56:39;;;;;;;0.50;0.30;;;;;;;30.32;59.56;99796.31;5008620;28;20445;-55
2022/06/23 10:59:40;;;;;;;0.50;0.30;;;;;;;30.32;58.75;99793.56;5012687;28;20494;-54
2022/06/23 11:02:45;;;;;;;0.40;0.30;;;;;;;29.88;59.93;99783.22;4993070;28;20427;-54
2022/06/23 11:05:30;;;;;;;0.40;0.30;;;;;;;30.15;60.21;99781.00;5001282;28;20448;-55
2022/06/23 11:08:00;;;;;;;0.40;0.30;;;;;;;29.57;59.81;99782.34;4999608;28;20464;-54
2022/06/23 11:10:49;;;;;;;0.40;0.30;;;;;;;30.24;58.87;99775.28;5012777;28;20961;-54
2022/06/23 11:13:26;;;;;;;0.40;0.30;;;;;;;30.25;58.51;99774.25;5001022;28;20437;-54
2022/06/23 11:16:02;;;;;;;0.40;0.30;;;;;;;30.95;57.70;99771.22;5010413;28;20427;-54
2022/06/23 11:18:35;;;;;;;0.40;0.30;;;;;;;30.85;57.17;99770.66;4992888;28;20847;-54
2022/06/23 11:21:19;;;;;;;0.60;0.60;;;;;;;30.94;56.06;99764.03;5019531;28;20452;-54
2022/06/23 11:23:57;;;;;;;0.40;0.30;;;;;;;30.98;56.21;99766.38;4992914;28;20427;-54
2022/06/23 11:26:31;;;;;;;0.40;0.30;;;;;;;30.70;54.21;99753.28;4997469;28;20475;-54
2022/06/23 11:29:17;;;;;;;0.40;0.30;;;;;;;29.96;55.71;99758.50;4994979;28;20481;-54
2022/06/23 11:32:28;;;;;;;0.40;0.30;;;;;;;30.38;54.76;99744.31;5005831;28;20453;-54
2022/06/23 11:35:04;;;;;;;0.40;0.30;;;;;;;30.42;54.39;99750.25;4999735;28;20450;-54
2022/06/23 11:37:52;;;;;;;0.50;0.30;;;;;;;30.69;53.76;99746.09;5012503;28;20905;-55
2022/06/23 11:40:40;;;;;;;0.40;0.30;;;;;;;31.23;53.33;99745.88;5011368;28;20459;-54
2022/06/23 11:43:15;;;;;;;0.40;0.30;;;;;;;31.18;52.11;99740.97;5012557;28;20459;-55
2022/06/23 11:46:18;;;;;;;0.40;0.30;;;;;;;30.60;51.06;99736.22;4992735;28;20451;-55
2022/06/23 11:48:54;;;;;;;0.40;0.30;;;;;;;29.98;52.61;99736.38;4992732;28;20462;-54
2022/06/23 11:51:29;;;;;;;0.40;0.30;;;;;;;30.19;52.55;99725.63;4992585;28;20980;-55
2022/06/23 11:54:28;;;;;;;0.40;0.30;;;;;;;31.03;50.73;99731.00;4992783;28;20446;-54
2022/06/23 11:57:13;;;;;;;0.40;0.30;;;;;;;31.21;49.86;99728.75;4994034;28;20468;-55
2022/06/23 12:00:08;;;;;;;0.40;0.30;;;;;;;30.48;51.51;99721.25;5007814;28;20488;-55
2022/06/23 12:03:45;;;;;;;0.40;0.30;;;;;;;30.85;50.79;99715.75;5012260;28;20939;-55
2022/06/23 12:06:20;;;;;;;0.40;0.30;;;;;;;31.44;48.87;99712.13;4979484;28;20426;-55
2022/06/23 12:08:50;;;;;;;0.40;0.30;;;;;;;31.30;48.14;99718.50;5002847;28;20548;-55
2022/06/23 12:11:17;;;;;;;0.40;0.30;;;;;;;31.38;49.01;99713.75;5007810;28;20453;-54
2022/06/23 12:13:43;;;;;;;0.40;0.30;;;;;;;31.27;49.47;99706.03;5003429;28;20423;-55
2022/06/23 12:16:10;;;;;;;0.40;0.20;;;;;;;31.71;48.80;99711.41;4993667;28;20432;-55
2022/06/23 12:18:48;;;;;;;0.50;0.30;;;;;;;31.58;48.33;99705.75;4992392;28;20495;-55
2022/06/23 12:21:42;;;;;;;1.23;1.23;;;;;;;31.53;47.80;99708.25;4999614;28;20447;-55
2022/06/23 12:24:25;;;;;;;0.50;0.30;;;;;;;31.70;47.25;99704.19;4998539;28;20532;-55
2022/06/23 12:27:22;;;;;;;0.40;0.30;;;;;;;31.59;46.81;99693.72;5011760;28;20820;-55
2022/06/23 12:29:57;;;;;;;0.40;0.30;;;;;;;31.82;46.48;99688.09;5002864;28;20441;-55
2022/06/23 12:32:35;;;;;;;0.40;0.30;;;;;;;32.34;45.29;99684.97;4998536;28;20494;-55
2022/06/23 12:35:15;;;;;;;0.40;0.30;;;;;;;31.93;45.23;99687.53;4998809;28;20415;-55
2022/06/23 12:37:47;;;;;;;0.40;0.30;;;;;;;31.62;45.09;99685.06;5000573;28;21001;-55
2022/06/23 12:40:33;;;;;;;0.40;0.30;;;;;;;31.36;46.84;99679.28;5008620;28;21018;-55
2022/06/23 12:43:39;;;;;;;0.40;0.30;;;;;;;31.90;46.59;99676.94;4992221;28;20456;-55
2022/06/23 12:46:35;;;;;;;0.50;0.30;;;;;;;32.15;46.11;99662.78;4955982;28;20796;-55
2022/06/23 12:49:05;;;;;;;0.40;0.30;;;;;;;31.75;47.06;99659.66;5004037;28;20464;-54
2022/06/23 12:52:02;;;;;;;0.40;0.30;;;;;;;31.64;47.55;99651.88;5002110;28;20453;-55
2022/06/23 12:55:03;;;;;;;0.40;0.30;;;;;;;31.59;47.37;99671.72;5002124;28;20546;-55
2022/06/23 12:57:52;;;;;;;1.80;1.60;;;;;;;32.11;46.39;99652.19;5007527;28;20464;-55
2022/06/23 13:00:27;;;;;;;0.50;0.30;;;;;;;31.91;47.01;99658.53;4995670;28;20477;-54
2022/06/23 13:03:15;;;;;;;0.50;0.30;;;;;;;31.70;45.55;99640.13;5008662;28;20451;-55
2022/06/23 13:05:51;;;;;;;0.50;0.30;;;;;;;32.18;45.56;99638.47;5007224;28;20419;-55
2022/06/23 13:08:26;;;;;;;0.40;0.30;;;;;;;31.02;48.18;99647.78;5008541;28;20986;-55
2022/06/23 13:11:03;;;;;;;0.40;0.30;;;;;;;31.40;47.54;99647.63;4994119;28;20905;-55
2022/06/23 13:14:04;;;;;;;0.50;0.30;;;;;;;31.60;46.56;99634.09;4995349;28;20451;-55
2022/06/23 13:16:41;;;;;;;0.50;0.30;;;;;;;31.79;44.92;99627.97;4981934;28;20523;-55
2022/06/23 13:19:16;;;;;;;0.50;0.30;;;;;;;32.13;42.76;99632.72;5001211;28;20502;-55
2022/06/23 13:21:43;;;;;;;0.40;0.30;;;;;;;31.83;44.35;99629.28;5013223;28;20438;-55
2022/06/23 13:24:16;;;;;;;0.40;0.30;;;;;;;31.18;45.01;99628.34;5012111;28;20427;-55